Time;durP1;ratioP1;P1;durP2;ratioP2;P2;SDS_P1;SDS_P2;PMS_P1;PMS_P2;Temp;Humidity;BMP_temperature;BMP_pressure;BME280_temperature;BME280_humidity;BME280_pressure;Samples;Min_cycle;Max_cycle;Signal;HPM_P1;HPM_P2
2021/06/23 00:00:30;;;;;;;12.45;2.72;;;;;;;;;;5037697;28;20064;-72
2021/06/23 00:02:57;;;;;;;10.50;2.10;;;;;;;;;;5072310;28;20040;-72
2021/06/23 00:05:25;;;;;;;10.98;2.30;;;;;;;;;;5055076;28;20033;-72
2021/06/23 00:07:52;;;;;;;10.65;2.28;;;;;;;;;;5054239;28;20044;-72
2021/06/23 00:10:18;;;;;;;15.00;2.53;;;;;;;;;;5072785;28;20048;-72
2021/06/23 00:12:45;;;;;;;10.38;1.83;;;;;;;;;;5072858;28;20042;-72
2021/06/23 00:15:13;;;;;;;13.98;2.10;;;;;;;;;;5072570;28;20446;-72
2021/06/23 00:17:39;;;;;;;12.60;2.13;;;;;;;;;;5054187;28;20045;-72
2021/06/23 00:20:06;;;;;;;9.60;2.15;;;;;;;;;;5071456;28;20402;-72
2021/06/23 00:22:33;;;;;;;12.25;2.10;;;;;;;;;;5072492;28;20059;-72
2021/06/23 00:24:59;;;;;;;9.73;2.25;;;;;;;;;;5071261;28;20097;-72
2021/06/23 00:27:25;;;;;;;7.32;1.83;;;;;;;;;;5053953;28;20050;-72
2021/06/23 00:29:52;;;;;;;10.55;2.00;;;;;;;;;;5071170;28;20226;-72
2021/06/23 00:32:18;;;;;;;;;;;;;;;;;;5054942;28;20479;-72
2021/06/23 00:34:44;;;;;;;;;;;;;;;;;;5054760;28;19924;-72
2021/06/23 00:37:10;;;;;;;;;;;;;;;;;;5071889;28;19927;-72
2021/06/23 00:39:36;;;;;;;10.75;2.40;;;;;;;;;;5072124;28;20015;-72
2021/06/23 00:42:02;;;;;;;12.23;2.40;;;;;;;;;;5053796;28;20420;-72
2021/06/23 00:44:29;;;;;;;;;;;;;;;;;;5054415;28;20055;-72
2021/06/23 00:46:55;;;;;;;8.60;2.50;;;;;;;;;;5053958;28;20412;-72
2021/06/23 00:49:21;;;;;;;8.75;2.30;;;;;;;;;;5054073;28;20394;-71
2021/06/23 00:51:47;;;;;;;12.50;2.75;;;;;;;;;;5072319;28;20383;-72
2021/06/23 00:54:13;;;;;;;;;;;;;;;;;;5053669;28;20083;-72
2021/06/23 00:56:40;;;;;;;9.40;2.85;;;;;;;;;;5037258;28;19957;-72
2021/06/23 00:59:07;;;;;;;;;;;;;;;;;;5071486;28;20384;-72
2021/06/23 01:01:35;;;;;;;6.35;2.20;;;;;;;;;;5071127;28;20342;-71
2021/06/23 01:04:02;;;;;;;10.57;2.40;;;;;;;;;;5053546;28;20070;-72
2021/06/23 01:06:29;;;;;;;12.98;2.50;;;;;;;;;;5071816;28;20121;-72
2021/06/23 01:08:55;;;;;;;10.50;2.60;;;;;;;;;;5053397;28;20047;-72
2021/06/23 01:11:21;;;;;;;10.85;2.65;;;;;;;;;;5071541;28;20044;-72
2021/06/23 01:13:48;;;;;;;;;;;;;;;;;;5072232;28;20123;-72
2021/06/23 01:16:14;;;;;;;7.85;2.28;;;;;;;;;;5053487;28;19920;-72
2021/06/23 01:18:40;;;;;;;;;;;;;;;;;;5054559;28;20403;-70
2021/06/23 01:21:06;;;;;;;;;;;;;;;;;;5053904;28;19974;-70
2021/06/23 01:23:32;;;;;;;9.27;2.35;;;;;;;;;;5072500;28;19935;-70
2021/06/23 01:25:59;;;;;;;17.02;3.15;;;;;;;;;;5053426;28;20044;-70
2021/06/23 01:28:25;;;;;;;10.18;2.70;;;;;;;;;;5072525;28;20040;-70
2021/06/23 01:30:54;;;;;;;11.35;2.70;;;;;;;;;;5054212;28;20048;-70
2021/06/23 01:33:20;;;;;;;7.72;3.00;;;;;;;;;;5071954;28;20047;-70
2021/06/23 01:35:47;;;;;;;8.70;3.25;;;;;;;;;;5071961;28;20131;-70
2021/06/23 01:38:13;;;;;;;14.02;2.90;;;;;;;;;;5072004;28;20048;-70
2021/06/23 01:40:39;;;;;;;11.77;3.72;;;;;;;;;;5058356;28;20098;-70
2021/06/23 01:43:08;;;;;;;13.27;2.88;;;;;;;;;;5075656;28;20044;-70
2021/06/23 01:45:34;;;;;;;11.98;3.40;;;;;;;;;;5075327;28;20044;-71
2021/06/23 01:48:01;;;;;;;11.05;3.22;;;;;;;;;;5075778;28;20041;-71
2021/06/23 01:50:27;;;;;;;8.95;3.00;;;;;;;;;;5075453;28;20039;-71
2021/06/23 01:52:53;;;;;;;14.15;3.33;;;;;;;;;;5058121;28;20526;-71
2021/06/23 01:55:29;;;;;;;10.88;3.85;;;;;;;;;;5074624;28;20049;-71
2021/06/23 01:58:06;;;;;;;9.98;3.22;;;;;;;;;;5043050;28;20044;-71
2021/06/23 02:00:53;;;;;;;10.77;3.50;;;;;;;;;;5057597;28;20088;-71
2021/06/23 02:03:32;;;;;;;10.90;3.30;;;;;;;;;;5075188;28;20066;-71
2021/06/23 02:06:06;;;;;;;9.20;3.28;;;;;;;;;;5057334;28;20135;-71
2021/06/23 02:08:44;;;;;;;10.00;3.10;;;;;;;;;;5075178;28;20068;-71
2021/06/23 02:11:18;;;;;;;12.30;3.80;;;;;;;;;;5056939;28;20052;-71
2021/06/23 02:14:03;;;;;;;11.32;3.17;;;;;;;;;;5075740;28;20039;-71
2021/06/23 02:16:30;;;;;;;9.13;2.70;;;;;;;;;;5074930;28;20044;-72
2021/06/23 02:19:01;;;;;;;11.77;3.35;;;;;;;;;;5075550;28;20068;-71
2021/06/23 02:21:29;;;;;;;13.88;3.10;;;;;;;;;;5057294;28;20118;-71
2021/06/23 02:23:55;;;;;;;11.70;3.30;;;;;;;;;;5075375;28;20049;-71
2021/06/23 02:26:22;;;;;;;13.65;2.90;;;;;;;;;;5056039;28;20533;-71
2021/06/23 02:28:48;;;;;;;9.05;2.63;;;;;;;;;;5075530;28;20044;-71
2021/06/23 02:31:15;;;;;;;11.70;3.17;;;;;;;;;;5056459;28;20131;-71
2021/06/23 02:33:42;;;;;;;8.20;3.58;;;;;;;;;;5075224;28;20475;-71
2021/06/23 02:36:08;;;;;;;8.05;2.75;;;;;;;;;;5074549;28;20044;-71
2021/06/23 02:38:35;;;;;;;10.90;2.83;;;;;;;;;;5075293;28;20040;-71
2021/06/23 02:41:01;;;;;;;7.60;2.97;;;;;;;;;;5074346;28;20380;-71
2021/06/23 02:43:28;;;;;;;9.15;2.70;;;;;;;;;;5056493;28;20041;-71
2021/06/23 02:45:54;;;;;;;9.57;2.92;;;;;;;;;;5057504;28;20122;-71
2021/06/23 02:48:21;;;;;;;14.20;3.05;;;;;;;;;;5039863;28;20044;-72
2021/06/23 02:51:07;;;;;;;11.23;2.95;;;;;;;;;;5074535;28;20490;-72
2021/06/23 02:53:34;;;;;;;9.25;2.72;;;;;;;;;;5074576;28;20040;-72
2021/06/23 02:56:01;;;;;;;15.52;2.90;;;;;;;;;;5056835;28;20527;-70
2021/06/23 02:58:27;;;;;;;9.50;3.17;;;;;;;;;;5056324;28;20078;-69
2021/06/23 03:00:54;;;;;;;10.13;3.35;;;;;;;;;;5056663;28;20102;-69
2021/06/23 03:03:20;;;;;;;9.32;3.38;;;;;;;;;;5073649;28;20430;-70
2021/06/23 03:05:47;;;;;;;11.35;3.30;;;;;;;;;;5074844;28;20063;-69
2021/06/23 03:08:13;;;;;;;12.35;2.88;;;;;;;;;;5056108;28;20522;-70
2021/06/23 03:10:39;;;;;;;9.20;3.38;;;;;;;;;;5074915;28;20037;-70
2021/06/23 03:13:05;;;;;;;12.13;3.30;;;;;;;;;;5073328;28;20071;-70
2021/06/23 03:15:32;;;;;;;10.90;3.33;;;;;;;;;;5074042;28;20071;-70
2021/06/23 03:18:01;;;;;;;9.55;3.10;;;;;;;;;;5073972;28;20047;-70
2021/06/23 03:20:27;;;;;;;10.43;3.10;;;;;;;;;;5073523;28;20499;-70
2021/06/23 03:22:53;;;;;;;11.23;3.55;;;;;;;;;;5074038;28;20125;-70
2021/06/23 03:25:19;;;;;;;11.85;3.20;;;;;;;;;;5073103;28;20044;-70
2021/06/23 03:27:54;;;;;;;11.63;3.15;;;;;;;;;;5073750;28;20037;-70
2021/06/23 03:30:24;;;;;;;11.10;3.05;;;;;;;;;;5073661;28;20470;-70
2021/06/23 03:32:51;;;;;;;15.20;3.50;;;;;;;;;;5073753;28;20044;-70
2021/06/23 03:35:19;;;;;;;12.07;3.13;;;;;;;;;;5073007;28;20407;-71
2021/06/23 03:37:46;;;;;;;11.45;3.50;;;;;;;;;;5074065;28;20050;-70
2021/06/23 03:40:12;;;;;;;9.60;3.58;;;;;;;;;;5073238;28;20074;-70
2021/06/23 03:42:38;;;;;;;10.60;3.33;;;;;;;;;;5073550;28;20048;-71
2021/06/23 03:45:05;;;;;;;10.15;3.95;;;;;;;;;;5073484;28;20051;-72
2021/06/23 03:47:32;;;;;;;12.60;3.45;;;;;;;;;;5072876;28;20041;-70
2021/06/23 03:49:58;;;;;;;17.73;3.30;;;;;;;;;;5073442;28;20044;-71
2021/06/23 03:52:24;;;;;;;13.48;3.45;;;;;;;;;;5073291;28;20047;-72
2021/06/23 03:54:51;;;;;;;12.40;3.92;;;;;;;;;;5073103;28;20044;-72
2021/06/23 03:57:17;;;;;;;13.43;3.05;;;;;;;;;;5054887;28;20118;-71
2021/06/23 03:59:50;;;;;;;13.05;3.00;;;;;;;;;;5055611;28;20403;-72
2021/06/23 04:02:17;;;;;;;11.27;3.17;;;;;;;;;;5053936;28;20128;-71
2021/06/23 04:04:45;;;;;;;12.82;3.53;;;;;;;;;;5055001;28;20051;-71
2021/06/23 04:07:12;;;;;;;12.02;3.50;;;;;;;;;;5072890;28;20052;-72
2021/06/23 04:09:39;;;;;;;6.32;3.00;;;;;;;;;;5073074;28;20051;-72
2021/06/23 04:12:06;;;;;;;6.40;2.72;;;;;;;;;;5073187;28;20090;-71
2021/06/23 04:14:32;;;;;;;11.15;3.60;;;;;;;;;;5071878;28;20040;-72
2021/06/23 04:16:58;;;;;;;8.50;3.30;;;;;;;;;;5055526;28;20041;-72
2021/06/23 04:19:26;;;;;;;11.30;3.38;;;;;;;;;;5054073;28;20057;-69
2021/06/23 04:21:52;;;;;;;9.65;3.40;;;;;;;;;;5055305;28;20040;-71
2021/06/23 04:24:18;;;;;;;11.02;3.63;;;;;;;;;;5054391;28;20040;-72
2021/06/23 04:26:44;;;;;;;10.02;3.95;;;;;;;;;;5073131;28;20045;-72
2021/06/23 04:29:12;;;;;;;11.73;3.28;;;;;;;;;;5072444;28;20041;-72
2021/06/23 04:31:41;;;;;;;10.63;3.35;;;;;;;;;;5072356;28;20052;-72
2021/06/23 04:34:07;;;;;;;10.35;3.83;;;;;;;;;;5054848;28;20123;-72
2021/06/23 04:36:34;;;;;;;5.72;3.15;;;;;;;;;;5072346;28;20055;-69
2021/06/23 04:39:01;;;;;;;10.75;3.80;;;;;;;;;;5072528;28;20040;-70
2021/06/23 04:41:27;;;;;;;9.05;3.20;;;;;;;;;;5072417;28;20486;-70
2021/06/23 04:43:53;;;;;;;7.05;2.60;;;;;;;;;;5071838;28;20102;-70
2021/06/23 04:46:19;;;;;;;9.18;3.35;;;;;;;;;;5071571;28;20540;-71
2021/06/23 04:48:45;;;;;;;11.07;3.03;;;;;;;;;;5038236;28;20048;-72
2021/06/23 04:51:15;;;;;;;8.95;2.88;;;;;;;;;;5054722;28;20106;-72
2021/06/23 04:53:42;;;;;;;12.88;2.95;;;;;;;;;;5071893;28;20049;-71
2021/06/23 04:56:08;;;;;;;15.07;3.78;;;;;;;;;;5054335;28;20111;-71
2021/06/23 04:58:34;;;;;;;10.50;3.38;;;;;;;;;;5071706;28;20124;-72
2021/06/23 05:01:00;;;;;;;11.88;3.20;;;;;;;;;;5071868;28;20049;-72
2021/06/23 05:03:27;;;;;;;13.70;3.95;;;;;;;;;;5072164;28;20068;-72
2021/06/23 05:05:57;;;;;;;11.90;3.17;;;;;;;;;;5054438;28;20106;-70
2021/06/23 05:08:23;;;;;;;9.63;3.28;;;;;;;;;;5053911;28;20122;-72
2021/06/23 05:10:49;;;;;;;11.23;3.42;;;;;;;;;;5054234;28;20054;-72
2021/06/23 05:13:16;;;;;;;9.27;3.05;;;;;;;;;;5074916;28;20116;-71
2021/06/23 05:15:42;;;;;;;9.98;2.97;;;;;;;;;;5076198;28;20051;-72
2021/06/23 05:18:08;;;;;;;9.90;3.38;;;;;;;;;;5058535;28;20040;-72
2021/06/23 05:20:34;;;;;;;10.98;3.50;;;;;;;;;;5075991;28;20410;-72
2021/06/23 05:23:07;;;;;;;11.25;3.47;;;;;;;;;;5075910;28;20041;-71
2021/06/23 05:25:34;;;;;;;14.88;3.13;;;;;;;;;;5040966;28;20044;-71
2021/06/23 05:28:00;;;;;;;13.63;3.47;;;;;;;;;;5076336;28;20044;-71
2021/06/23 05:30:26;;;;;;;15.05;3.78;;;;;;;;;;5076058;28;20041;-71
2021/06/23 05:32:53;;;;;;;11.98;2.97;;;;;;;;;;5075935;28;20043;-71
2021/06/23 05:35:20;;;;;;;11.93;3.03;;;;;;;;;;5076378;28;20047;-71
2021/06/23 05:37:46;;;;;;;13.57;3.45;;;;;;;;;;5076362;28;20472;-71
2021/06/23 05:40:12;;;;;;;13.32;3.95;;;;;;;;;;5058458;28;20040;-71
2021/06/23 05:42:39;;;;;;;11.02;3.58;;;;;;;;;;5076309;28;20049;-71
2021/06/23 05:45:06;;;;;;;9.20;3.60;;;;;;;;;;5076032;28;20044;-71
2021/06/23 05:47:32;;;;;;;9.30;3.78;;;;;;;;;;5075609;28;20391;-72
2021/06/23 05:49:58;;;;;;;12.85;3.75;;;;;;;;;;5075855;28;20052;-72
2021/06/23 05:52:24;;;;;;;8.85;2.85;;;;;;;;;;5075613;28;20056;-72
2021/06/23 05:54:51;;;;;;;11.93;2.85;;;;;;;;;;5075805;28;20044;-72
2021/06/23 05:57:17;;;;;;;12.48;3.05;;;;;;;;;;5076208;28;20098;-72
2021/06/23 05:59:43;;;;;;;16.92;3.90;;;;;;;;;;5075078;28;20055;-71
2021/06/23 06:02:09;;;;;;;16.85;3.08;;;;;;;;;;5075583;28;20097;-72
2021/06/23 06:04:36;;;;;;;9.52;3.17;;;;;;;;;;5075192;28;20041;-72
2021/06/23 06:07:02;;;;;;;11.65;3.40;;;;;;;;;;5057304;28;20402;-72
2021/06/23 06:09:28;;;;;;;11.48;3.45;;;;;;;;;;5074435;28;20057;-72
2021/06/23 06:11:54;;;;;;;12.23;3.20;;;;;;;;;;5075243;28;20049;-71
2021/06/23 06:14:20;;;;;;;14.10;3.42;;;;;;;;;;5074850;28;20117;-72
2021/06/23 06:16:47;;;;;;;11.88;3.08;;;;;;;;;;5075009;28;20089;-73
2021/06/23 06:19:13;;;;;;;10.35;2.67;;;;;;;;;;5074949;28;20044;-75
2021/06/23 06:21:39;;;;;;;12.25;2.42;;;;;;;;;;5039763;28;20040;-74
2021/06/23 06:24:05;;;;;;;13.30;3.58;;;;;;;;;;5055935;28;20098;-72
2021/06/23 06:26:32;;;;;;;11.45;2.78;;;;;;;;;;5040245;28;20475;-73
2021/06/23 06:28:58;;;;;;;11.15;3.40;;;;;;;;;;5075204;28;20060;-73
2021/06/23 06:31:25;;;;;;;17.88;3.25;;;;;;;;;;5057464;28;20048;-70
2021/06/23 06:33:51;;;;;;;15.32;3.50;;;;;;;;;;5074857;28;20049;-72
2021/06/23 06:36:18;;;;;;;7.57;3.22;;;;;;;;;;5075144;28;20048;-71
2021/06/23 06:38:44;;;;;;;11.98;2.70;;;;;;;;;;5057053;28;20109;-71
2021/06/23 06:41:10;;;;;;;13.82;2.58;;;;;;;;;;5057258;28;20036;-70
2021/06/23 06:43:36;;;;;;;17.05;3.33;;;;;;;;;;5074586;28;20047;-72
2021/06/23 06:46:02;;;;;;;15.60;3.20;;;;;;;;;;5057364;28;20083;-71
2021/06/23 06:48:28;;;;;;;13.60;2.72;;;;;;;;;;5074508;28;20048;-72
2021/06/23 06:50:55;;;;;;;13.38;3.05;;;;;;;;;;5074530;28;20463;-72
2021/06/23 06:53:21;;;;;;;14.90;2.70;;;;;;;;;;5074507;28;20051;-72
2021/06/23 06:55:47;;;;;;;14.65;3.10;;;;;;;;;;5074133;28;20444;-72
2021/06/23 06:58:14;;;;;;;10.60;2.55;;;;;;;;;;5074398;28;20068;-73
2021/06/23 07:00:41;;;;;;;17.13;3.58;;;;;;;;;;5055464;28;20063;-73
2021/06/23 07:03:07;;;;;;;9.55;2.78;;;;;;;;;;5073893;28;20440;-73
2021/06/23 07:05:34;;;;;;;9.70;2.90;;;;;;;;;;5037135;28;20053;-72
2021/06/23 07:08:00;;;;;;;12.00;2.60;;;;;;;;;;5055785;28;20123;-72
2021/06/23 07:10:26;;;;;;;12.70;2.53;;;;;;;;;;5073724;28;20093;-72
2021/06/23 07:12:52;;;;;;;12.02;2.20;;;;;;;;;;5073208;28;20041;-72
2021/06/23 07:15:19;;;;;;;11.60;2.45;;;;;;;;;;5073357;28;20056;-72
2021/06/23 07:17:45;;;;;;;8.75;2.25;;;;;;;;;;5073107;28;20048;-70
2021/06/23 07:20:11;;;;;;;12.45;2.20;;;;;;;;;;5056193;28;20072;-70
2021/06/23 07:22:37;;;;;;;11.30;1.95;;;;;;;;;;5055781;28;20071;-72
2021/06/23 07:25:04;;;;;;;11.88;2.30;;;;;;;;;;5074121;28;20093;-72
2021/06/23 07:27:30;;;;;;;10.18;2.20;;;;;;;;;;5056345;28;20044;-73
2021/06/23 07:29:57;;;;;;;9.98;2.50;;;;;;;;;;5051946;28;20051;-72
2021/06/23 07:37:18;;;;;;;9.27;2.20;;;;;;;;;;5073454;28;20167;-73
2021/06/23 07:39:45;;;;;;;9.15;1.92;;;;;;;;;;5038533;28;20119;-75
2021/06/23 07:42:12;;;;;;;7.22;2.55;;;;;;;;;;5073630;28;20041;-73
2021/06/23 07:47:08;;;;;;;11.82;2.20;;;;;;;;;;5073456;28;20111;-70
2021/06/23 07:49:37;;;;;;;12.63;2.67;;;;;;;;;;5072584;28;20048;-71
2021/06/23 08:10:38;;;;;;;;;;;;;;;;;;5072631;28;20359;-73
2021/06/23 08:13:05;;;;;;;12.43;2.50;;;;;;;;;;5072981;28;20396;-72
2021/06/23 08:15:31;;;;;;;11.20;2.45;;;;;;;;;;5073253;28;20040;-72
2021/06/23 08:17:58;;;;;;;9.73;1.92;;;;;;;;;;5072309;28;20095;-71
2021/06/23 08:20:24;;;;;;;10.77;2.25;;;;;;;;;;5054561;28;20051;-71
2021/06/23 08:22:51;;;;;;;14.90;2.40;;;;;;;;;;5072220;28;20071;-72
2021/06/23 08:25:17;;;;;;;15.77;2.20;;;;;;;;;;5039260;28;20052;-71
2021/06/23 08:27:43;;;;;;;9.07;2.00;;;;;;;;;;5054622;28;20040;-72
2021/06/23 08:30:10;;;;;;;7.78;2.20;;;;;;;;;;5054951;28;20048;-72
2021/06/23 08:32:37;;;;;;;8.65;2.13;;;;;;;;;;5073038;28;20044;-72
2021/06/23 08:35:03;;;;;;;11.60;2.17;;;;;;;;;;5054387;28;20040;-72
2021/06/23 08:37:30;;;;;;;7.63;2.30;;;;;;;;;;5054750;28;20413;-72
2021/06/23 08:39:56;;;;;;;8.75;2.13;;;;;;;;;;5054289;28;20044;-72
2021/06/23 08:42:23;;;;;;;6.93;2.05;;;;;;;;;;5072287;28;20097;-72
2021/06/23 08:44:49;;;;;;;13.18;2.10;;;;;;;;;;5054245;28;20079;-72
2021/06/23 08:47:16;;;;;;;9.07;2.00;;;;;;;;;;5072369;28;20095;-73
2021/06/23 08:49:43;;;;;;;10.55;2.75;;;;;;;;;;5037800;28;20048;-73
2021/06/23 08:52:09;;;;;;;6.82;2.25;;;;;;;;;;5054716;28;20039;-72
2021/06/23 08:54:36;;;;;;;6.20;2.28;;;;;;;;;;5072574;28;20051;-71
2021/06/23 08:57:03;;;;;;;11.15;2.33;;;;;;;;;;5054219;28;20048;-72
2021/06/23 08:59:29;;;;;;;15.13;3.15;;;;;;;;;;5038158;28;20040;-71
2021/06/23 09:01:55;;;;;;;9.68;2.63;;;;;;;;;;5053104;28;20087;-72
2021/06/23 09:04:24;;;;;;;12.32;2.15;;;;;;;;;;5072231;28;20040;-72
2021/06/23 09:06:55;;;;;;;8.38;1.85;;;;;;;;;;5071872;28;20041;-72
2021/06/23 09:09:22;;;;;;;12.02;2.55;;;;;;;;;;5072266;28;20134;-72
2021/06/23 09:11:50;;;;;;;11.30;2.22;;;;;;;;;;5071873;28;20041;-71
2021/06/23 09:14:17;;;;;;;7.20;2.38;;;;;;;;;;5072053;28;20048;-71
2021/06/23 09:17:14;;;;;;;9.57;1.85;;;;;;;;;;5054135;28;20048;-74
2021/06/23 09:19:42;;;;;;;10.52;2.67;;;;;;;;;;5055947;28;20549;-73
2021/06/23 09:22:27;;;;;;;8.05;2.10;;;;;;;;;;5053714;28;20039;-73
2021/06/23 09:24:53;;;;;;;7.18;2.22;;;;;;;;;;5071137;28;20422;-73
2021/06/23 09:27:24;;;;;;;13.80;2.00;;;;;;;;;;5072641;28;20090;-72
2021/06/23 09:29:51;;;;;;;9.68;2.33;;;;;;;;;;5071432;28;20040;-73
2021/06/23 09:32:18;;;;;;;11.15;2.35;;;;;;;;;;5054550;28;20040;-72
2021/06/23 09:34:46;;;;;;;9.13;2.35;;;;;;;;;;5072216;28;20534;-72
2021/06/23 09:37:26;;;;;;;12.82;2.42;;;;;;;;;;5053920;28;20124;-72
2021/06/23 09:40:13;;;;;;;15.27;2.75;;;;;;;;;;5071482;28;20044;-73
2021/06/23 09:42:40;;;;;;;14.68;2.65;;;;;;;;;;5071886;28;20071;-72
2021/06/23 09:45:07;;;;;;;10.10;2.20;;;;;;;;;;5071599;28;20048;-72
2021/06/23 09:47:36;;;;;;;10.73;2.75;;;;;;;;;;5054225;28;20166;-72
2021/06/23 09:50:03;;;;;;;7.78;2.45;;;;;;;;;;5054256;28;20139;-73
2021/06/23 09:52:29;;;;;;;12.45;2.85;;;;;;;;;;5071983;28;20094;-73
2021/06/23 09:54:57;;;;;;;13.70;2.80;;;;;;;;;;5071252;28;20441;-73
2021/06/23 09:57:24;;;;;;;5.53;1.90;;;;;;;;;;5053900;28;20048;-72
2021/06/23 09:59:52;;;;;;;12.93;2.58;;;;;;;;;;5072652;28;20048;-73
2021/06/23 10:02:21;;;;;;;7.38;2.40;;;;;;;;;;5041627;28;20036;-72
2021/06/23 10:04:47;;;;;;;14.65;2.00;;;;;;;;;;5057298;28;20098;-73
2021/06/23 10:07:13;;;;;;;10.18;2.42;;;;;;;;;;5056852;28;20485;-72
2021/06/23 10:09:40;;;;;;;10.73;2.20;;;;;;;;;;5040708;28;20047;-73
2021/06/23 10:12:07;;;;;;;10.07;2.72;;;;;;;;;;5074597;28;20044;-72
2021/06/23 10:14:35;;;;;;;8.00;2.13;;;;;;;;;;5075100;28;20047;-72
2021/06/23 10:17:03;;;;;;;10.07;2.53;;;;;;;;;;5057099;28;20040;-73
2021/06/23 10:19:30;;;;;;;9.52;2.17;;;;;;;;;;5057471;28;20056;-74
2021/06/23 10:21:57;;;;;;;7.35;1.90;;;;;;;;;;5074576;28;20467;-71
2021/06/23 10:24:24;;;;;;;7.03;2.22;;;;;;;;;;5040300;28;20045;-70
2021/06/23 10:26:51;;;;;;;8.98;2.30;;;;;;;;;;5075408;28;20369;-72
2021/06/23 10:29:20;;;;;;;8.93;1.95;;;;;;;;;;5057210;28;20494;-73
2021/06/23 10:31:47;;;;;;;11.93;2.00;;;;;;;;;;5075260;28;20044;-73
2021/06/23 10:34:18;;;;;;;8.63;2.17;;;;;;;;;;5074215;28;20498;-73
2021/06/23 10:36:45;;;;;;;5.88;1.90;;;;;;;;;;5074469;28;20483;-73
2021/06/23 10:39:11;;;;;;;7.63;2.35;;;;;;;;;;5073591;28;20040;-72
2021/06/23 10:41:39;;;;;;;10.90;2.55;;;;;;;;;;5056962;28;20048;-72
2021/06/23 10:44:18;;;;;;;11.40;2.35;;;;;;;;;;5074362;28;20384;-72
2021/06/23 10:46:46;;;;;;;9.80;2.33;;;;;;;;;;5074794;28;20040;-72
2021/06/23 10:49:16;;;;;;;16.02;2.47;;;;;;;;;;5074309;28;20067;-74
2021/06/23 10:51:43;;;;;;;9.55;2.28;;;;;;;;;;5040782;28;20403;-71
2021/06/23 10:54:32;;;;;;;16.85;2.50;;;;;;;;;;5055942;28;20047;-73
2021/06/23 10:56:59;;;;;;;8.20;2.50;;;;;;;;;;5045073;28;20060;-73
2021/06/23 10:59:32;;;;;;;8.73;2.20;;;;;;;;;;5073729;28;20048;-73
2021/06/23 11:02:17;;;;;;;11.75;2.00;;;;;;;;;;5056240;28;20056;-73
2021/06/23 11:04:52;;;;;;;13.43;2.28;;;;;;;;;;5072581;28;20304;-73
2021/06/23 11:07:38;;;;;;;12.05;2.03;;;;;;;;;;5055072;28;20040;-72
2021/06/23 11:10:17;;;;;;;12.02;2.50;;;;;;;;;;5053881;28;20053;-74
2021/06/23 11:12:46;;;;;;;7.68;2.20;;;;;;;;;;5071890;28;20052;-73
2021/06/23 11:15:13;;;;;;;10.18;2.10;;;;;;;;;;5054370;28;20052;-73
2021/06/23 11:17:40;;;;;;;11.85;2.42;;;;;;;;;;5053341;28;20424;-69
2021/06/23 11:20:27;;;;;;;9.25;2.53;;;;;;;;;;5071067;28;20090;-76
2021/06/23 11:22:54;;;;;;;;;;;;;;;;;;5059836;28;20136;-74
2021/06/23 11:25:20;;;;;;;;;;;;;;;;;;5073658;28;19955;-73
2021/06/23 11:27:46;;;;;;;;;;;;;;;;;;5056228;28;19927;-74
2021/06/23 11:30:12;;;;;;;;;;;;;;;;;;5055377;28;20011;-74
2021/06/23 11:32:38;;;;;;;;;;;;;;;;;;5053926;28;19939;-73
2021/06/23 11:35:05;;;;;;;;;;;;;;;;;;5055311;28;19977;-74
2021/06/23 11:37:31;;;;;;;;;;;;;;;;;;5073741;28;19920;-74
2021/06/23 11:39:57;;;;;;;;;;;;;;;;;;5073791;28;20019;-74
2021/06/23 11:42:24;;;;;;;;;;;;;;;;;;5073140;28;19924;-74
2021/06/23 11:44:50;;;;;;;;;;;;;;;;;;5056001;28;19920;-74
2021/06/23 11:47:16;;;;;;;;;;;;;;;;;;5073334;28;19939;-74
2021/06/23 11:49:42;;;;;;;;;;;;;;;;;;5055776;28;19943;-75
2021/06/23 11:52:08;;;;;;;;;;;;;;;;;;5055412;28;20058;-74
2021/06/23 11:54:45;;;;;;;;;;;;;;;;;;5056954;28;20367;-73
2021/06/23 11:57:11;;;;;;;;;;;;;;;;;;5073157;28;19927;-74
2021/06/23 11:59:43;;;;;;;;;;;;;;;;;;5073643;28;19920;-75
2021/06/23 12:02:09;;;;;;;;;;;;;;;;;;5072526;28;20385;-74
2021/06/23 12:04:35;;;;;;;;;;;;;;;;;;5073355;28;19921;-74
2021/06/23 12:07:01;;;;;;;;;;;;;;;;;;5055415;28;19920;-74
2021/06/23 12:09:27;;;;;;;;;;;;;;;;;;5055388;28;19927;-74
2021/06/23 12:11:54;;;;;;;;;;;;;;;;;;5053910;28;19924;-74
2021/06/23 12:14:20;;;;;;;;;;;;;;;;;;5053090;28;20367;-74
2021/06/23 12:16:46;;;;;;;;;;;;;;;;;;5053499;28;19920;-74
2021/06/23 12:19:12;;;;;;;;;;;;;;;;;;5052061;28;20359;-74
2021/06/23 12:21:38;;;;;;;;;;;;;;;;;;5052515;28;20286;-74
2021/06/23 12:24:04;;;;;;;;;;;;;;;;;;5051572;28;20014;-74
2021/06/23 12:26:31;;;;;;;;;;;;;;;;;;5070566;28;19920;-74
2021/06/23 12:28:57;;;;;;;;;;;;;;;;;;5070741;28;19927;-74
2021/06/23 12:31:23;;;;;;;;;;;;;;;;;;5070069;28;19945;-74
2021/06/23 12:33:49;;;;;;;;;;;;;;;;;;5070451;28;19920;-74
2021/06/23 12:36:15;;;;;;;;;;;;;;;;;;5069770;28;19951;-74
2021/06/23 12:38:41;;;;;;;;;;;;;;;;;;5071217;28;20381;-74
2021/06/23 12:41:07;;;;;;;;;;;;;;;;;;5069465;28;20366;-74
2021/06/23 12:43:33;;;;;;;;;;;;;;;;;;5052444;28;19928;-76
2021/06/23 12:45:59;;;;;;;;;;;;;;;;;;5069982;28;20440;-77
2021/06/23 12:48:25;;;;;;;;;;;;;;;;;;5069784;28;19951;-76
2021/06/23 12:50:51;;;;;;;;;;;;;;;;;;5052478;28;19970;-74
2021/06/23 12:53:17;;;;;;;;;;;;;;;;;;5052433;28;19982;-73
2021/06/23 12:55:43;;;;;;;;;;;;;;;;;;5052415;28;19931;-74
2021/06/23 12:58:09;;;;;;;;;;;;;;;;;;5051882;28;19971;-73
2021/06/23 13:00:35;;;;;;;;;;;;;;;;;;5070168;28;20340;-74
2021/06/23 13:03:01;;;;;;;;;;;;;;;;;;5052094;28;20355;-73
2021/06/23 13:05:27;;;;;;;;;;;;;;;;;;5069542;28;20421;-73
2021/06/23 13:07:53;;;;;;;;;;;;;;;;;;5070371;28;19924;-74
2021/06/23 13:10:39;;;;;;;;;;;;;;;;;;5056815;28;19920;-73
2021/06/23 13:13:06;;;;;;;;;;;;;;;;;;5054117;28;20011;-73
2021/06/23 13:15:32;;;;;;;;;;;;;;;;;;5070046;28;19921;-73
2021/06/23 13:17:58;;;;;;;;;;;;;;;;;;5070726;28;20355;-73
2021/06/23 13:20:24;;;;;;;;;;;;;;;;;;5051577;28;20018;-74
2021/06/23 13:22:51;;;;;;;;;;;;;;;;;;5069726;28;19921;-73
2021/06/23 13:25:17;;;;;;;;;;;;;;;;;;5069390;28;19931;-73
2021/06/23 13:27:43;;;;;;;;;;;;;;;;;;5052056;28;19978;-74
2021/06/23 13:30:09;;;;;;;;;;;;;;;;;;5051977;28;19921;-74
2021/06/23 13:32:35;;;;;;;;;;;;;;;;;;5069409;28;19956;-73
2021/06/23 13:35:01;;;;;;;;;;;;;;;;;;5055615;28;20077;-74
2021/06/23 13:37:27;;;;;;;;;;;;;;;;;;5073697;28;19921;-74
2021/06/23 13:39:53;;;;;;;;;;;;;;;;;;5056173;28;20139;-74
2021/06/23 13:42:19;;;;;;;;;;;;;;;;;;5057640;28;19927;-74
2021/06/23 13:44:45;;;;;;;;;;;;;;;;;;5073646;28;19943;-74
2021/06/23 13:47:11;;;;;;;;;;;;;;;;;;5073625;28;20367;-73
2021/06/23 13:49:37;;;;;;;;;;;;;;;;;;5054887;28;19928;-72
2021/06/23 13:52:03;;;;;;;;;;;;;;;;;;5055787;28;20375;-72
2021/06/23 13:54:29;;;;;;;;;;;;;;;;;;5072843;28;20362;-73
2021/06/23 13:56:56;;;;;;;;;;;;;;;;;;5055292;28;19943;-73
2021/06/23 13:59:22;;;;;;;;;;;;;;;;;;5073112;28;20543;-73
2021/06/23 14:01:48;;;;;;;;;;;;;;;;;;5054889;28;19994;-73
2021/06/23 14:04:14;;;;;;;;;;;;;;;;;;5073320;28;19924;-73
2021/06/23 14:06:40;;;;;;;;;;;;;;;;;;5054693;28;20453;-73
2021/06/23 14:09:06;;;;;;;;;;;;;;;;;;5073640;28;19920;-73
2021/06/23 14:11:32;;;;;;;;;;;;;;;;;;5054899;28;19917;-72
2021/06/23 14:13:59;;;;;;;;;;;;;;;;;;5073351;28;20010;-74
2021/06/23 14:16:25;;;;;;;;;;;;;;;;;;5049674;28;19977;-74
2021/06/23 14:18:51;;;;;;;;;;;;;;;;;;5071097;28;19920;-74
2021/06/23 14:21:18;;;;;;;;;;;;;;;;;;5052197;28;19921;-75
2021/06/23 14:23:44;;;;;;;;;;;;;;;;;;5052496;28;19932;-74
2021/06/23 14:26:11;;;;;;;;;;;;;;;;;;5055320;28;19921;-74
2021/06/23 14:28:37;;;;;;;;;;;;;;;;;;5054457;28;19920;-74
2021/06/23 14:31:03;;;;;;;;;;;;;;;;;;5035315;28;19959;-75
2021/06/23 14:33:29;;;;;;;;;;;;;;;;;;5051630;28;19978;-75
2021/06/23 14:35:56;;;;;;;;;;;;;;;;;;5035633;28;19921;-74
2021/06/23 14:38:22;;;;;;;;;;;;;;;;;;5033929;28;19928;-74
2021/06/23 14:40:48;;;;;;;;;;;;;;;;;;5034762;28;19921;-74
2021/06/23 14:43:14;;;;;;;;;;;;;;;;;;5052572;28;20066;-74
2021/06/23 14:45:40;;;;;;;;;;;;;;;;;;5051338;28;19928;-74
2021/06/23 14:48:06;;;;;;;;;;;;;;;;;;5052290;28;20417;-74
2021/06/23 14:50:32;;;;;;;;;;;;;;;;;;5034959;28;20356;-74
2021/06/23 14:53:00;;;;;;;;;;;;;;;;;;5051867;28;19928;-74
2021/06/23 14:55:26;;;;;;;;;;;;;;;;;;5033903;28;19951;-74
2021/06/23 14:57:52;;;;;;;;;;;;;;;;;;5051994;28;20264;-74
2021/06/23 15:00:18;;;;;;;;;;;;;;;;;;5052096;28;19922;-74
2021/06/23 15:02:44;;;;;;;;;;;;;;;;;;5029681;28;19932;-74
2021/06/23 15:05:10;;;;;;;;;;;;;;;;;;5047492;28;19945;-73
2021/06/23 15:07:36;;;;;;;;;;;;;;;;;;5047010;28;20043;-72
2021/06/23 15:10:05;;;;;;;;;;;;;;;;;;5032633;28;19927;-73
2021/06/23 15:12:31;;;;;;;;;;;;;;;;;;5030975;28;19971;-73
2021/06/23 15:14:58;;;;;;;;;;;;;;;;;;5047147;28;19928;-73
2021/06/23 15:17:24;;;;;;;;;;;;;;;;;;5031761;28;19925;-74
2021/06/23 15:19:50;;;;;;;;;;;;;;;;;;5047251;28;19960;-73
2021/06/23 15:22:16;;;;;;;;;;;;;;;;;;5031325;28;19925;-73
2021/06/23 15:24:45;;;;;;;;;;;;;;;;;;5031248;28;19927;-74
2021/06/23 15:27:11;;;;;;;;;;;;;;;;;;5046903;28;19921;-74
2021/06/23 15:29:39;;;;;;;;;;;;;;;;;;5046197;28;19961;-73
2021/06/23 15:32:05;;;;;;;;;;;;;;;;;;5047008;28;19966;-74
2021/06/23 15:34:31;;;;;;;;;;;;;;;;;;5045980;28;19995;-74
2021/06/23 15:36:57;;;;;;;;;;;;;;;;;;5047397;28;19921;-74